createdAt,value
2019-01-11T00:01:51.111Z,31.13
2019-01-11T00:04:56.784Z,29.53
2019-01-11T00:08:02.478Z,28.70
2019-01-11T00:11:08.186Z,29.30
2019-01-11T00:14:13.957Z,28.93
2019-01-11T00:17:19.675Z,29.20
2019-01-11T00:20:25.271Z,26.60
2019-01-11T00:23:30.870Z,26.73
2019-01-11T00:26:36.497Z,25.20
2019-01-11T00:29:42.131Z,25.47
2019-01-11T00:32:47.980Z,21.93
2019-01-11T00:35:53.607Z,23.90
2019-01-11T00:38:59.646Z,22.63
2019-01-11T00:42:06.985Z,20.23
2019-01-11T00:45:12.843Z,19.30
2019-01-11T00:48:18.564Z,20.20
2019-01-11T00:51:24.324Z,18.63
2019-01-11T00:54:29.996Z,17.00
2019-01-11T00:57:35.595Z,17.73
2019-01-11T01:00:41.214Z,15.97
2019-01-11T01:03:46.857Z,16.97
2019-01-11T01:06:53.577Z,15.47
2019-01-11T01:09:59.180Z,15.03
2019-01-11T01:13:05.606Z,15.83
2019-01-11T01:16:11.390Z,14.87
2019-01-11T01:19:20.134Z,14.57
2019-01-11T01:22:24.337Z,14.87
2019-01-11T01:25:30.023Z,13.40
2019-01-11T01:28:35.667Z,15.10
2019-01-11T01:31:43.049Z,14.33
2019-01-11T01:34:48.843Z,13.50
2019-01-11T01:37:54.562Z,11.90
2019-01-11T01:41:00.152Z,12.23
2019-01-11T01:44:05.931Z,12.43
2019-01-11T01:47:11.560Z,12.30
2019-01-11T01:50:17.292Z,10.63
2019-01-11T01:53:22.952Z,11.77
2019-01-11T01:56:28.583Z,13.10
2019-01-11T01:59:34.355Z,11.83
2019-01-11T02:02:40.224Z,13.27
2019-01-11T02:05:45.878Z,12.77
2019-01-11T02:08:51.506Z,13.00
2019-01-11T02:11:57.186Z,12.23
2019-01-11T02:15:02.973Z,12.47
2019-01-11T02:18:08.561Z,13.27
2019-01-11T02:21:14.151Z,13.77
2019-01-11T02:24:19.899Z,12.87
2019-01-11T02:27:25.536Z,12.40
2019-01-11T02:30:31.226Z,11.23
2019-01-11T02:33:36.857Z,13.20
2019-01-11T02:36:42.522Z,11.20
2019-01-11T02:39:48.184Z,12.93
2019-01-11T02:42:53.815Z,12.07
2019-01-11T02:45:59.408Z,13.33
2019-01-11T02:49:05.208Z,14.87
2019-01-11T02:52:10.925Z,12.60
2019-01-11T02:55:16.645Z,12.50
2019-01-11T02:58:22.279Z,13.03
2019-01-11T03:01:28.135Z,11.70
2019-01-11T03:04:33.886Z,12.80
2019-01-11T03:07:39.502Z,11.70
2019-01-11T03:10:45.234Z,13.47
2019-01-11T03:13:50.850Z,11.33
2019-01-11T03:16:56.663Z,12.57
2019-01-11T03:20:02.403Z,12.57
2019-01-11T03:23:08.250Z,12.40
2019-01-11T03:26:13.884Z,13.03
2019-01-11T03:29:19.497Z,13.40
2019-01-11T03:32:25.110Z,13.13
2019-01-11T03:35:30.732Z,11.93
2019-01-11T03:38:36.305Z,12.63
2019-01-11T03:42:09.138Z,12.70
2019-01-11T03:45:16.947Z,12.50
2019-01-11T03:48:22.571Z,13.80
2019-01-11T03:51:28.335Z,12.43
2019-01-11T03:54:33.954Z,27.83
2019-01-11T03:57:39.624Z,14.90
2019-01-11T04:00:45.280Z,14.63
2019-01-11T04:03:50.947Z,14.40
2019-01-11T04:06:56.523Z,13.70
2019-01-11T04:10:02.271Z,12.57
2019-01-11T04:13:07.964Z,12.97
2019-01-11T04:16:13.586Z,12.17
2019-01-11T04:19:19.245Z,22.97
2019-01-11T04:22:29.745Z,14.53
2019-01-11T04:25:46.939Z,14.33
2019-01-11T04:28:52.645Z,14.30
2019-01-11T04:31:58.314Z,15.13
2019-01-11T04:35:04.632Z,18.90
2019-01-11T04:38:10.273Z,10.80
2019-01-11T04:41:15.848Z,9.50
2019-01-11T04:44:21.440Z,8.47
2019-01-11T04:47:27.232Z,8.43
2019-01-11T04:50:32.874Z,11.27
2019-01-11T04:53:38.577Z,9.47
2019-01-11T04:56:44.239Z,10.00
2019-01-11T04:59:49.835Z,8.33
2019-01-11T05:02:55.420Z,8.20
2019-01-11T05:06:01.160Z,8.30
2019-01-11T05:09:08.077Z,8.83
2019-01-11T05:12:13.787Z,13.77
2019-01-11T05:15:19.529Z,10.87
2019-01-11T05:18:25.195Z,9.47
2019-01-11T05:21:30.846Z,9.83
2019-01-11T05:24:36.421Z,8.57
2019-01-11T05:27:42.145Z,10.77
2019-01-11T05:30:47.767Z,8.73
2019-01-11T05:33:53.495Z,10.20
2019-01-11T05:36:59.269Z,16.03
2019-01-11T05:40:06.276Z,9.07
2019-01-11T05:43:11.956Z,9.47
2019-01-11T05:46:17.636Z,13.60
2019-01-11T05:49:23.272Z,10.20
2019-01-11T05:52:28.944Z,11.40
2019-01-11T05:55:48.499Z,9.87
2019-01-11T05:59:12.981Z,10.83
2019-01-11T06:02:18.591Z,9.83
2019-01-11T06:05:24.295Z,10.97
2019-01-11T06:08:30.897Z,8.53
2019-01-11T06:11:36.487Z,6.77
2019-01-11T06:14:42.125Z,9.97
2019-01-11T06:17:47.749Z,8.47
2019-01-11T06:20:53.399Z,10.07
2019-01-11T06:23:59.064Z,8.03
2019-01-11T06:27:04.892Z,9.83
2019-01-11T06:30:13.064Z,9.47
2019-01-11T06:33:18.705Z,9.97
2019-01-11T06:36:24.317Z,9.47
2019-01-11T06:39:30.054Z,9.47
2019-01-11T06:42:36.722Z,10.00
2019-01-11T06:45:42.353Z,7.97
2019-01-11T06:48:48.007Z,10.30
2019-01-11T06:51:54.451Z,10.53
2019-01-11T06:55:00.178Z,11.43
2019-01-11T06:58:05.886Z,9.93
2019-01-11T07:01:11.549Z,11.10
2019-01-11T07:04:17.177Z,9.93
2019-01-11T07:07:22.800Z,10.70
2019-01-11T07:10:28.561Z,10.90
2019-01-11T07:13:34.236Z,10.37
2019-01-11T07:16:39.904Z,10.43
2019-01-11T07:19:45.572Z,10.03
2019-01-11T07:22:51.184Z,10.33
2019-01-11T07:25:56.923Z,10.20
2019-01-11T07:29:02.582Z,8.33
2019-01-11T07:32:08.201Z,7.60
2019-01-11T07:35:13.995Z,8.27
2019-01-11T07:38:19.787Z,11.10
2019-01-11T07:41:25.403Z,8.80
2019-01-11T07:44:31.145Z,9.27
2019-01-11T07:47:36.745Z,10.57
2019-01-11T07:50:42.367Z,8.00
2019-01-11T07:53:48.077Z,10.97
2019-01-11T07:56:54.468Z,8.73
2019-01-11T08:00:00.094Z,12.20
2019-01-11T08:03:06.050Z,10.70
2019-01-11T08:06:11.859Z,11.80
2019-01-11T08:09:17.574Z,16.03
2019-01-11T08:12:23.299Z,14.37
2019-01-11T08:15:29.117Z,12.87
2019-01-11T08:18:34.717Z,13.30
2019-01-11T08:21:40.413Z,13.20
2019-01-11T08:24:53.780Z,13.60
2019-01-11T08:28:06.587Z,13.83
2019-01-11T08:31:12.214Z,12.50
2019-01-11T08:34:17.957Z,11.33
2019-01-11T08:37:24.593Z,11.20
2019-01-11T08:40:30.309Z,12.10
2019-01-11T08:43:37.117Z,12.33
2019-01-11T08:46:42.888Z,12.20
2019-01-11T08:49:48.595Z,11.93
2019-01-11T08:52:54.453Z,11.97
2019-01-11T08:56:00.117Z,12.20
2019-01-11T08:59:05.860Z,11.30
2019-01-11T09:02:11.485Z,12.07
2019-01-11T09:05:17.256Z,10.60
2019-01-11T09:08:23.028Z,10.87
2019-01-11T09:11:28.616Z,14.57
2019-01-11T09:14:51.914Z,11.33
2019-01-11T09:18:17.956Z,13.07
2019-01-11T09:21:23.877Z,14.27
2019-01-11T09:24:29.624Z,12.30
2019-01-11T09:27:35.353Z,12.23
2019-01-11T09:30:41.180Z,12.13
2019-01-11T09:33:46.906Z,9.47
2019-01-11T09:36:52.656Z,12.13
2019-01-11T09:39:58.500Z,12.23
2019-01-11T09:43:04.443Z,13.60
2019-01-11T09:46:10.744Z,16.77
2019-01-11T09:49:16.499Z,34.13
2019-01-11T09:52:22.274Z,72.60
2019-01-11T09:55:28.016Z,48.10
2019-01-11T09:58:33.747Z,26.20
2019-01-11T10:01:39.591Z,13.40
2019-01-11T10:04:45.421Z,14.70
2019-01-11T10:07:52.271Z,13.50
2019-01-11T10:10:58.021Z,16.03
2019-01-11T10:14:03.886Z,15.00
2019-01-11T10:17:09.743Z,12.90
2019-01-11T10:20:15.754Z,12.13
2019-01-11T10:23:21.551Z,12.67
2019-01-11T10:26:27.392Z,13.03
2019-01-11T10:29:33.205Z,9.93
2019-01-11T10:32:38.918Z,9.63
2019-01-11T10:35:44.570Z,8.57
2019-01-11T10:38:50.209Z,10.20
2019-01-11T10:41:55.890Z,7.47
2019-01-11T10:45:01.514Z,7.90
2019-01-11T10:48:07.219Z,7.53
2019-01-11T10:51:12.949Z,11.00
2019-01-11T10:54:30.009Z,9.03
2019-01-11T10:57:35.636Z,11.43
2019-01-11T11:00:41.318Z,10.90
2019-01-11T11:03:47.039Z,9.30
2019-01-11T11:06:52.675Z,10.00
2019-01-11T11:09:59.612Z,8.93
2019-01-11T11:13:05.301Z,8.50
2019-01-11T11:16:10.976Z,10.83
2019-01-11T11:19:16.686Z,9.83
2019-01-11T11:22:22.319Z,9.37
2019-01-11T11:25:27.996Z,8.90
2019-01-11T11:28:33.583Z,8.00
2019-01-11T11:31:39.211Z,9.00
2019-01-11T11:34:46.481Z,8.00
2019-01-11T11:37:52.084Z,10.43
2019-01-11T11:40:57.700Z,43.40
2019-01-11T11:44:03.333Z,10.53
2019-01-11T11:47:08.938Z,9.30
2019-01-11T11:50:14.989Z,17.87
2019-01-11T11:53:20.777Z,14.27
2019-01-11T11:56:26.464Z,16.77
2019-01-11T11:59:32.106Z,13.67
2019-01-11T12:02:37.796Z,25.97
2019-01-11T12:05:43.387Z,11.13
2019-01-11T12:08:49.083Z,41.97
2019-01-11T12:11:54.794Z,18.10
2019-01-11T12:15:00.440Z,18.00
2019-01-11T12:18:06.215Z,9.77
2019-01-11T12:21:12.040Z,13.33
2019-01-11T12:24:18.692Z,8.47
2019-01-11T12:27:24.345Z,7.63
2019-01-11T12:30:30.061Z,7.97
2019-01-11T12:33:35.682Z,7.40
2019-01-11T12:36:41.507Z,8.20
2019-01-11T12:39:47.161Z,7.30
2019-01-11T12:42:52.792Z,8.30
2019-01-11T12:45:58.422Z,7.80
2019-01-11T12:49:04.075Z,7.77
2019-01-11T12:52:09.755Z,9.00
2019-01-11T12:55:15.438Z,8.80
2019-01-11T12:58:21.130Z,7.33
2019-01-11T13:01:26.744Z,11.00
2019-01-11T13:04:32.372Z,9.63
2019-01-11T13:07:38.016Z,15.10
2019-01-11T13:10:43.625Z,9.70
2019-01-11T13:13:49.284Z,24.60
2019-01-11T13:16:55.161Z,10.40
2019-01-11T13:20:00.962Z,9.30
2019-01-11T13:23:06.861Z,8.00
2019-01-11T13:26:12.651Z,7.57
2019-01-11T13:29:18.283Z,8.00
2019-01-11T13:32:23.996Z,7.53
2019-01-11T13:35:29.606Z,9.63
2019-01-11T13:38:35.308Z,14.07
2019-01-11T13:41:41.122Z,22.37
2019-01-11T13:44:46.749Z,13.07
2019-01-11T13:47:52.647Z,8.57
2019-01-11T13:50:58.271Z,9.47
2019-01-11T13:54:04.436Z,10.20
2019-01-11T13:57:10.039Z,8.03
2019-01-11T14:00:15.843Z,11.37
2019-01-11T14:03:21.556Z,11.07
2019-01-11T14:06:27.207Z,16.37
2019-01-11T14:09:33.242Z,13.43
2019-01-11T14:12:38.867Z,22.13
2019-01-11T14:15:44.646Z,18.10
2019-01-11T14:18:50.330Z,15.30
2019-01-11T14:21:55.978Z,17.33
2019-01-11T14:25:01.666Z,15.33
2019-01-11T14:28:07.450Z,15.63
2019-01-11T14:31:13.185Z,13.57
2019-01-11T14:34:18.949Z,12.57
2019-01-11T14:37:24.614Z,35.50
2019-01-11T14:40:30.225Z,20.93
2019-01-11T14:43:35.809Z,16.90
2019-01-11T14:46:41.445Z,13.57
2019-01-11T14:49:47.111Z,13.20
2019-01-11T14:52:52.908Z,12.17
2019-01-11T14:55:58.540Z,12.90
2019-01-11T14:59:04.202Z,11.87
2019-01-11T15:02:09.857Z,8.27
2019-01-11T15:05:16.302Z,10.13
2019-01-11T15:08:21.949Z,10.43
2019-01-11T15:11:27.587Z,14.13
2019-01-11T15:14:33.229Z,12.23
2019-01-11T15:17:38.929Z,12.47
2019-01-11T15:20:44.516Z,11.47
2019-01-11T15:23:50.136Z,11.27
2019-01-11T15:26:55.726Z,12.23
2019-01-11T15:30:01.373Z,13.33
2019-01-11T15:33:07.074Z,14.60
2019-01-11T15:36:12.735Z,13.77
2019-01-11T15:39:18.385Z,11.67
2019-01-11T15:42:24.023Z,11.30
2019-01-11T15:45:29.658Z,10.70
2019-01-11T15:48:45.055Z,12.73
2019-01-11T15:51:50.675Z,11.60
2019-01-11T15:54:56.333Z,12.40
2019-01-11T15:58:01.957Z,11.97
2019-01-11T16:01:07.743Z,11.63
2019-01-11T16:04:13.392Z,12.40
2019-01-11T16:07:19.047Z,11.63
2019-01-11T16:10:24.731Z,11.53
2019-01-11T16:13:56.434Z,13.07
2019-01-11T16:17:06.596Z,16.20
2019-01-11T16:20:12.839Z,13.17
2019-01-11T16:23:18.598Z,10.50
2019-01-11T16:26:24.223Z,12.80
2019-01-11T16:29:29.813Z,35.20
2019-01-11T16:32:35.533Z,16.83
2019-01-11T16:35:41.485Z,17.20
2019-01-11T16:38:47.097Z,13.50
2019-01-11T16:41:52.697Z,14.83
2019-01-11T16:44:58.321Z,12.93
2019-01-11T16:48:04.025Z,13.50
2019-01-11T16:51:09.639Z,23.37
2019-01-11T16:54:15.425Z,28.60
2019-01-11T16:57:21.059Z,24.77
2019-01-11T17:00:26.840Z,29.20
2019-01-11T17:03:32.565Z,22.90
2019-01-11T17:06:38.330Z,24.50
2019-01-11T17:09:43.968Z,19.37
2019-01-11T17:12:49.584Z,14.10
2019-01-11T17:15:55.177Z,17.33
2019-01-11T17:19:00.865Z,16.53
2019-01-11T17:22:06.777Z,15.90
2019-01-11T17:25:12.546Z,16.90
2019-01-11T17:28:18.170Z,16.03
2019-01-11T17:31:23.805Z,14.30
2019-01-11T17:34:29.413Z,13.07
2019-01-11T17:37:35.037Z,24.17
2019-01-11T17:40:40.682Z,11.87
2019-01-11T17:43:46.416Z,18.07
2019-01-11T17:46:52.073Z,11.47
2019-01-11T17:50:01.157Z,16.67
2019-01-11T17:53:05.353Z,18.60
2019-01-11T17:56:11.153Z,18.30
2019-01-11T17:59:16.794Z,13.23
2019-01-11T18:02:22.448Z,16.67
2019-01-11T18:05:28.133Z,10.80
2019-01-11T18:08:33.783Z,13.67
2019-01-11T18:11:39.358Z,13.70
2019-01-11T18:14:46.058Z,12.87
2019-01-11T18:17:51.892Z,12.77
2019-01-11T18:20:57.531Z,19.77
2019-01-11T18:24:03.116Z,15.47
2019-01-11T18:27:08.751Z,15.33
2019-01-11T18:30:15.942Z,16.70
2019-01-11T18:33:21.622Z,13.37
2019-01-11T18:36:27.348Z,19.03
2019-01-11T18:39:32.968Z,18.23
2019-01-11T18:42:38.590Z,24.00
2019-01-11T18:45:44.181Z,16.20
2019-01-11T18:48:49.820Z,14.67
2019-01-11T18:51:55.475Z,19.40
2019-01-11T18:55:01.272Z,14.50
2019-01-11T18:58:07.282Z,17.13
2019-01-11T19:01:12.927Z,16.80
2019-01-11T19:04:18.566Z,19.93
2019-01-11T19:07:25.204Z,16.83
2019-01-11T19:10:30.915Z,18.20
2019-01-11T19:13:36.646Z,22.33
2019-01-11T19:16:42.308Z,16.90
2019-01-11T19:19:48.024Z,14.43
2019-01-11T19:22:53.799Z,19.77
2019-01-11T19:25:59.398Z,17.70
2019-01-11T19:29:05.232Z,16.47
2019-01-11T19:32:10.852Z,17.93
2019-01-11T19:35:16.460Z,19.83
2019-01-11T19:38:22.428Z,16.47
2019-01-11T19:41:28.129Z,18.50
2019-01-11T19:44:33.803Z,18.20
2019-01-11T19:47:39.539Z,14.60
2019-01-11T19:50:46.300Z,15.10
2019-01-11T19:53:51.997Z,17.87
2019-01-11T19:56:57.566Z,17.53
2019-01-11T20:00:03.171Z,14.10
2019-01-11T20:03:09.018Z,18.07
2019-01-11T20:06:14.589Z,14.03
2019-01-11T20:09:20.323Z,14.93
2019-01-11T20:12:25.927Z,14.70
2019-01-11T20:15:32.050Z,17.80
2019-01-11T20:18:37.826Z,16.53
2019-01-11T20:21:43.545Z,15.97
2019-01-11T20:24:49.717Z,15.13
2019-01-11T20:27:55.343Z,17.47
2019-01-11T20:31:00.977Z,17.63
2019-01-11T20:34:08.702Z,14.27
2019-01-11T20:37:38.983Z,12.97
2019-01-11T20:40:44.718Z,11.87
2019-01-11T20:43:50.342Z,12.93
2019-01-11T20:46:55.988Z,12.17
2019-01-11T20:50:01.619Z,11.73
2019-01-11T20:53:07.222Z,12.47
2019-01-11T20:56:12.946Z,11.97
2019-01-11T20:59:18.572Z,8.83
2019-01-11T21:02:24.296Z,9.07
2019-01-11T21:05:30.416Z,12.60
2019-01-11T21:08:36.035Z,13.17
2019-01-11T21:11:41.697Z,11.53
2019-01-11T21:14:47.331Z,9.90
2019-01-11T21:17:53.156Z,11.57
2019-01-11T21:20:58.748Z,12.13
2019-01-11T21:24:04.677Z,12.03
2019-01-11T21:27:10.472Z,12.00
2019-01-11T21:30:24.361Z,10.40
2019-01-11T21:33:30.101Z,11.63
2019-01-11T21:36:35.769Z,11.50
2019-01-11T21:39:41.528Z,10.53
2019-01-11T21:42:47.657Z,10.53
2019-01-11T21:45:53.325Z,12.27
2019-01-11T21:48:59.255Z,30.67
2019-01-11T21:52:05.163Z,21.40
2019-01-11T21:55:11.939Z,16.87
2019-01-11T21:58:17.522Z,32.20
2019-01-11T22:01:23.166Z,41.40
2019-01-11T22:04:28.793Z,28.33
2019-01-11T22:07:35.523Z,65.10
2019-01-11T22:10:41.162Z,110.30
2019-01-11T22:13:46.983Z,57.63
2019-01-11T22:16:52.744Z,21.70
2019-01-11T22:19:58.529Z,28.97
2019-01-11T22:23:04.376Z,50.13
2019-01-11T22:26:10.236Z,43.80
2019-01-11T22:29:16.093Z,42.53
2019-01-11T22:32:21.824Z,24.87
2019-01-11T22:35:27.507Z,53.60
2019-01-11T22:38:33.188Z,21.50
2019-01-11T22:41:38.885Z,19.23
2019-01-11T22:44:44.466Z,22.37
2019-01-11T22:47:50.129Z,20.17
2019-01-11T22:50:55.777Z,23.60
2019-01-11T22:54:01.405Z,15.20
2019-01-11T22:57:07.172Z,13.07
2019-01-11T23:00:42.002Z,13.67
2019-01-11T23:03:51.070Z,10.60
2019-01-11T23:07:22.140Z,14.17
2019-01-11T23:11:07.398Z,12.70
2019-01-11T23:14:13.037Z,12.60
2019-01-11T23:17:34.466Z,13.93
2019-01-11T23:20:40.198Z,13.10
2019-01-11T23:23:45.938Z,16.33
2019-01-11T23:26:51.652Z,9.93
2019-01-11T23:29:57.374Z,14.83
2019-01-11T23:33:03.111Z,23.87
2019-01-11T23:36:08.895Z,12.77
2019-01-11T23:39:14.562Z,31.87
2019-01-11T23:42:20.192Z,14.40
2019-01-11T23:45:25.985Z,13.53
2019-01-11T23:48:31.613Z,14.43
2019-01-11T23:51:37.277Z,10.20
2019-01-11T23:54:42.903Z,13.43
2019-01-11T23:57:48.549Z,13.87
